createdAt,value
2022-07-25T00:00:57.583Z,6.50
2022-07-25T00:02:03.201Z,6.50
2022-07-25T00:03:09.392Z,5.75
2022-07-25T00:04:13.102Z,5.00
2022-07-25T00:05:18.384Z,6.50
2022-07-25T00:06:22.900Z,7.50
2022-07-25T00:07:27.207Z,7.50
2022-07-25T00:08:31.312Z,7.25
2022-07-25T00:09:35.514Z,6.00
2022-07-25T00:10:39.938Z,6.50
2022-07-25T00:11:44.542Z,6.00
2022-07-25T00:12:48.756Z,7.00
2022-07-25T00:13:52.848Z,7.00
2022-07-25T00:14:57.159Z,6.25
2022-07-25T00:16:01.607Z,6.50
2022-07-25T00:17:05.774Z,6.75
2022-07-25T00:18:09.995Z,6.00
2022-07-25T00:19:14.091Z,7.00
2022-07-25T00:20:18.188Z,5.50
2022-07-25T00:21:22.392Z,4.50
2022-07-25T00:22:26.620Z,5.00
2022-07-25T00:23:30.698Z,5.00
2022-07-25T00:24:35.875Z,5.25
2022-07-25T00:25:40.052Z,5.50
2022-07-25T00:26:43.774Z,5.50
2022-07-25T00:27:47.631Z,5.50
2022-07-25T00:28:51.732Z,5.00
2022-07-25T00:29:56.040Z,6.00
2022-07-25T00:31:00.291Z,5.75
2022-07-25T00:32:04.566Z,5.50
2022-07-25T00:33:08.760Z,5.75
2022-07-25T00:34:13.177Z,6.00
2022-07-25T00:35:17.353Z,5.00
2022-07-25T00:36:21.478Z,5.25
2022-07-25T00:37:25.707Z,6.00
2022-07-25T00:38:29.786Z,5.00
2022-07-25T00:39:35.758Z,6.00
2022-07-25T00:40:39.020Z,6.25
2022-07-25T00:41:43.239Z,6.25
2022-07-25T00:42:47.099Z,7.00
2022-07-25T00:43:50.895Z,6.50
2022-07-25T00:44:54.929Z,6.25
2022-07-25T00:45:59.533Z,6.00
2022-07-25T00:47:03.844Z,7.00
2022-07-25T00:48:08.006Z,7.50
2022-07-25T00:49:12.018Z,7.00
2022-07-25T00:50:16.363Z,7.75
2022-07-25T00:51:20.343Z,7.50
2022-07-25T00:52:24.361Z,8.00
2022-07-25T00:53:28.458Z,6.75
2022-07-25T00:54:32.464Z,6.25
2022-07-25T00:55:36.668Z,7.00
2022-07-25T00:56:40.982Z,7.00
2022-07-25T00:57:45.491Z,7.75
2022-07-25T00:58:49.700Z,7.75
2022-07-25T00:59:53.885Z,6.25
2022-07-25T01:00:58.122Z,7.25
2022-07-25T01:02:04.074Z,7.00
2022-07-25T01:03:07.692Z,7.00
2022-07-25T01:04:11.609Z,7.50
2022-07-25T01:05:15.648Z,7.75
2022-07-25T01:06:19.915Z,9.00
2022-07-25T01:07:25.289Z,8.00
2022-07-25T01:08:29.394Z,8.00
2022-07-25T01:09:33.459Z,7.50
2022-07-25T01:10:37.710Z,7.75
2022-07-25T01:11:41.908Z,7.50
2022-07-25T01:12:46.219Z,7.50
2022-07-25T01:13:50.630Z,7.25
2022-07-25T01:14:54.809Z,8.00
2022-07-25T01:15:59.073Z,8.50
2022-07-25T01:17:03.476Z,8.25
2022-07-25T01:18:07.758Z,8.00
2022-07-25T01:19:12.070Z,7.75
2022-07-25T01:20:16.175Z,7.50
2022-07-25T01:21:20.373Z,7.25
2022-07-25T01:22:24.378Z,6.75
2022-07-25T01:23:28.496Z,7.00
2022-07-25T01:24:32.483Z,7.00
2022-07-25T01:25:36.687Z,6.25
2022-07-25T01:26:40.799Z,5.50
2022-07-25T01:27:44.791Z,6.00
2022-07-25T01:28:48.905Z,6.00
2022-07-25T01:29:53.000Z,5.50
2022-07-25T01:30:57.149Z,6.00
2022-07-25T01:32:01.413Z,6.25
2022-07-25T01:33:06.698Z,6.00
2022-07-25T01:34:10.646Z,5.50
2022-07-25T01:35:14.745Z,6.00
2022-07-25T01:36:18.590Z,5.00
2022-07-25T01:37:22.642Z,5.25
2022-07-25T01:38:26.638Z,5.50
2022-07-25T01:39:30.541Z,6.50
2022-07-25T01:40:34.651Z,5.50
2022-07-25T01:41:38.632Z,5.50
2022-07-25T01:42:42.660Z,6.25
2022-07-25T01:43:46.638Z,6.00
2022-07-25T01:44:50.857Z,6.00
2022-07-25T01:45:58.276Z,4.75
2022-07-25T01:47:02.241Z,5.00
2022-07-25T01:48:06.680Z,6.50
2022-07-25T01:49:10.995Z,6.50
2022-07-25T01:50:14.977Z,5.50
2022-07-25T01:51:20.380Z,5.50
2022-07-25T01:52:24.187Z,6.00
2022-07-25T01:53:28.256Z,5.50
2022-07-25T01:54:32.045Z,5.25
2022-07-25T01:55:38.956Z,4.25
2022-07-25T01:56:43.066Z,5.00
2022-07-25T01:57:48.641Z,5.00
2022-07-25T01:58:53.278Z,5.00
2022-07-25T01:59:57.214Z,4.50
2022-07-25T02:01:01.370Z,5.25
2022-07-25T02:02:05.419Z,4.50
2022-07-25T02:03:09.404Z,4.50
2022-07-25T02:04:13.483Z,5.00
2022-07-25T02:05:17.378Z,5.00
2022-07-25T02:06:21.320Z,4.00
2022-07-25T02:07:25.427Z,4.75
2022-07-25T02:08:29.452Z,5.50
2022-07-25T02:09:34.458Z,4.50
2022-07-25T02:10:38.554Z,5.00
2022-07-25T02:11:42.553Z,4.75
2022-07-25T02:12:46.650Z,5.00
2022-07-25T02:13:50.774Z,5.25
2022-07-25T02:14:54.866Z,5.00
2022-07-25T02:15:58.966Z,4.75
2022-07-25T02:17:03.308Z,5.25
2022-07-25T02:18:07.583Z,5.00
2022-07-25T02:19:12.304Z,5.00
2022-07-25T02:20:16.505Z,5.50
2022-07-25T02:21:20.508Z,5.00
2022-07-25T02:22:24.463Z,4.25
2022-07-25T02:23:28.611Z,3.75
2022-07-25T02:24:32.574Z,3.50
2022-07-25T02:25:36.523Z,2.75
2022-07-25T02:26:40.822Z,3.50
2022-07-25T02:27:45.131Z,5.00
2022-07-25T02:28:49.348Z,4.00
2022-07-25T02:29:53.845Z,5.00
2022-07-25T02:30:58.103Z,4.25
2022-07-25T02:32:02.261Z,4.50
2022-07-25T02:33:06.342Z,4.25
2022-07-25T02:34:10.477Z,4.00
2022-07-25T02:35:14.466Z,4.50
2022-07-25T02:36:18.570Z,3.50
2022-07-25T02:37:22.775Z,2.00
2022-07-25T02:38:26.879Z,2.50
2022-07-25T02:39:30.908Z,2.00
2022-07-25T02:40:34.774Z,2.00
2022-07-25T02:41:38.992Z,2.00
2022-07-25T02:42:43.190Z,2.00
2022-07-25T02:43:47.500Z,1.50
2022-07-25T02:44:51.705Z,1.50
2022-07-25T02:45:55.768Z,1.50
2022-07-25T02:46:59.662Z,2.00
2022-07-25T02:48:03.471Z,1.25
2022-07-25T02:49:07.579Z,1.00
2022-07-25T02:50:14.720Z,2.00
2022-07-25T02:51:16.733Z,0.00
2022-07-25T02:52:20.706Z,1.00
2022-07-25T02:53:46.786Z,1.25
2022-07-25T02:54:29.761Z,1.00
2022-07-25T02:55:33.765Z,1.50
2022-07-25T02:56:37.864Z,1.50
2022-07-25T02:57:41.741Z,1.50
2022-07-25T02:58:45.761Z,1.25
2022-07-25T02:59:49.724Z,1.50
2022-07-25T03:00:53.914Z,1.50
2022-07-25T03:01:57.898Z,1.50
2022-07-25T03:03:01.871Z,1.50
2022-07-25T03:04:07.236Z,1.50
2022-07-25T03:05:11.510Z,1.00
2022-07-25T03:06:15.614Z,0.75
2022-07-25T03:07:19.819Z,2.00
2022-07-25T03:08:23.819Z,1.50
2022-07-25T03:09:27.842Z,1.00
2022-07-25T03:10:31.823Z,2.00
2022-07-25T03:11:35.944Z,2.00
2022-07-25T03:12:40.239Z,2.00
2022-07-25T03:13:44.399Z,2.00
2022-07-25T03:14:48.657Z,2.50
2022-07-25T03:15:53.058Z,2.50
2022-07-25T03:16:57.204Z,2.50
2022-07-25T03:18:01.476Z,2.50
2022-07-25T03:19:05.732Z,2.00
2022-07-25T03:20:09.676Z,2.00
2022-07-25T03:21:13.678Z,1.50
2022-07-25T03:22:17.983Z,1.00
2022-07-25T03:23:21.988Z,1.00
2022-07-25T03:24:25.841Z,1.25
2022-07-25T03:25:29.785Z,1.00
2022-07-25T03:26:33.888Z,0.25
2022-07-25T03:27:37.768Z,1.25
2022-07-25T03:28:41.890Z,1.00
2022-07-25T03:29:45.992Z,1.00
2022-07-25T03:30:49.904Z,0.75
2022-07-25T03:31:53.921Z,1.50
2022-07-25T03:32:57.992Z,1.00
2022-07-25T03:34:01.901Z,2.50
2022-07-25T03:35:05.893Z,2.50
2022-07-25T03:36:10.016Z,2.00
2022-07-25T03:37:14.064Z,2.00
2022-07-25T03:38:17.857Z,2.00
2022-07-25T03:39:21.811Z,1.00
2022-07-25T03:40:25.796Z,1.00
2022-07-25T03:41:29.797Z,1.50
2022-07-25T03:42:35.640Z,1.00
2022-07-25T03:43:38.800Z,1.00
2022-07-25T03:44:42.935Z,1.00
2022-07-25T03:45:47.179Z,1.25
2022-07-25T03:46:51.544Z,1.75
2022-07-25T03:47:55.715Z,0.50
2022-07-25T03:48:59.943Z,1.00
2022-07-25T03:50:04.071Z,0.25
2022-07-25T03:51:08.239Z,0.50
2022-07-25T03:52:12.469Z,0.00
2022-07-25T03:53:16.881Z,0.00
2022-07-25T03:54:20.992Z,0.00
2022-07-25T03:55:25.193Z,0.00
2022-07-25T03:56:29.160Z,0.00
2022-07-25T03:57:32.975Z,0.00
2022-07-25T03:58:37.094Z,0.00
2022-07-25T03:59:41.399Z,0.00
2022-07-25T04:00:45.713Z,0.00
2022-07-25T04:01:50.768Z,0.00
2022-07-25T04:02:54.897Z,0.00
2022-07-25T04:03:59.076Z,0.00
2022-07-25T04:05:03.358Z,0.00
2022-07-25T04:06:07.452Z,0.00
2022-07-25T04:07:11.657Z,0.50
2022-07-25T04:08:15.720Z,0.00
2022-07-25T04:09:19.667Z,0.00
2022-07-25T04:10:23.767Z,0.25
2022-07-25T04:11:27.766Z,0.00
2022-07-25T04:12:31.866Z,0.00
2022-07-25T04:13:35.759Z,0.00
2022-07-25T04:14:39.766Z,0.00
2022-07-25T04:15:43.871Z,0.25
2022-07-25T04:16:47.896Z,0.00
2022-07-25T04:17:51.985Z,0.00
2022-07-25T04:18:56.205Z,0.25
2022-07-25T04:20:01.009Z,0.00
2022-07-25T04:21:04.957Z,0.00
2022-07-25T04:22:08.903Z,0.50
2022-07-25T04:23:12.869Z,0.75
2022-07-25T04:24:16.761Z,0.25
2022-07-25T04:25:21.014Z,0.75
2022-07-25T04:26:25.009Z,0.25
2022-07-25T04:27:29.009Z,0.00
2022-07-25T04:28:32.821Z,0.00
2022-07-25T04:29:37.021Z,0.50
2022-07-25T04:30:41.012Z,0.00
2022-07-25T04:31:45.181Z,0.50
2022-07-25T04:32:49.322Z,0.50
2022-07-25T04:33:53.434Z,0.00
2022-07-25T04:34:57.524Z,0.00
2022-07-25T04:36:01.742Z,0.50
2022-07-25T04:37:05.937Z,0.75
2022-07-25T04:38:12.146Z,0.75
2022-07-25T04:39:15.329Z,0.00
2022-07-25T04:40:19.483Z,1.50
2022-07-25T04:41:23.482Z,1.00
2022-07-25T04:42:27.590Z,0.00
2022-07-25T04:43:31.597Z,0.75
2022-07-25T04:44:35.581Z,1.00
2022-07-25T04:45:39.561Z,0.50
2022-07-25T04:46:43.609Z,1.00
2022-07-25T04:47:47.494Z,0.50
2022-07-25T04:48:51.622Z,0.25
2022-07-25T04:49:55.590Z,0.50
2022-07-25T04:50:59.594Z,0.50
2022-07-25T04:52:03.692Z,0.00
2022-07-25T04:53:07.692Z,0.00
2022-07-25T04:54:11.797Z,1.00
2022-07-25T04:55:15.802Z,1.00
2022-07-25T04:56:19.926Z,1.00
2022-07-25T04:57:23.815Z,1.00
2022-07-25T04:58:27.698Z,0.00
2022-07-25T04:59:31.619Z,0.00
2022-07-25T05:00:35.670Z,0.50
2022-07-25T05:01:39.608Z,0.00
2022-07-25T05:02:43.550Z,0.00
2022-07-25T05:03:49.869Z,0.50
2022-07-25T05:04:52.844Z,1.00
2022-07-25T05:05:56.831Z,0.50
2022-07-25T05:07:01.041Z,1.00
2022-07-25T05:08:05.247Z,0.00
2022-07-25T05:09:09.553Z,1.00
2022-07-25T05:10:13.864Z,0.50
2022-07-25T05:11:18.065Z,1.00
2022-07-25T05:12:22.071Z,1.00
2022-07-25T05:13:26.300Z,0.25
2022-07-25T05:14:30.274Z,0.00
2022-07-25T05:15:34.275Z,0.00
2022-07-25T05:16:38.325Z,0.50
2022-07-25T05:17:43.608Z,1.00
2022-07-25T05:18:47.787Z,0.50
2022-07-25T05:19:51.822Z,0.50
2022-07-25T05:20:56.029Z,0.50
2022-07-25T05:22:00.230Z,0.75
2022-07-25T05:23:04.337Z,0.00
2022-07-25T05:24:08.791Z,0.50
2022-07-25T05:25:13.037Z,0.50
2022-07-25T05:26:17.153Z,0.50
2022-07-25T05:27:21.357Z,0.50
2022-07-25T05:28:25.154Z,0.50
2022-07-25T05:29:29.283Z,0.50
2022-07-25T05:30:36.582Z,0.50
2022-07-25T05:31:38.756Z,0.50
2022-07-25T05:32:43.209Z,1.00
2022-07-25T05:33:48.539Z,0.50
2022-07-25T05:34:52.625Z,0.00
2022-07-25T05:35:56.745Z,0.25
2022-07-25T05:37:00.625Z,0.50
2022-07-25T05:38:04.543Z,0.25
2022-07-25T05:39:08.547Z,0.50
2022-07-25T05:40:12.652Z,0.00
2022-07-25T05:41:16.618Z,1.00
2022-07-25T05:42:20.342Z,1.00
2022-07-25T05:43:24.343Z,0.50
2022-07-25T05:44:28.452Z,0.75
2022-07-25T05:45:32.448Z,1.00
2022-07-25T05:46:36.327Z,0.50
2022-07-25T05:47:40.347Z,1.00
2022-07-25T05:48:44.638Z,1.25
2022-07-25T05:49:49.067Z,0.25
2022-07-25T05:50:53.068Z,0.00
2022-07-25T05:51:56.978Z,0.50
2022-07-25T05:53:00.967Z,0.25
2022-07-25T05:54:05.188Z,0.00
2022-07-25T05:55:09.486Z,0.00
2022-07-25T05:56:13.658Z,0.00
2022-07-25T05:57:17.793Z,0.00
2022-07-25T05:58:23.964Z,0.00
2022-07-25T05:59:27.123Z,0.00
2022-07-25T06:00:31.130Z,0.00
2022-07-25T06:01:35.251Z,0.50
2022-07-25T06:02:42.246Z,0.00
2022-07-25T06:03:46.045Z,0.00
2022-07-25T06:04:50.104Z,0.50
2022-07-25T06:05:53.998Z,0.25
2022-07-25T06:06:58.014Z,0.00
2022-07-25T06:08:01.753Z,0.00
2022-07-25T06:09:07.962Z,0.25
2022-07-25T06:10:10.718Z,0.00
2022-07-25T06:11:14.622Z,0.00
2022-07-25T06:12:18.618Z,0.00
2022-07-25T06:13:22.811Z,0.00
2022-07-25T06:14:27.499Z,0.00
2022-07-25T06:15:32.553Z,0.25
2022-07-25T06:16:37.965Z,0.00
2022-07-25T06:17:41.927Z,0.50
2022-07-25T06:18:45.841Z,0.25
2022-07-25T06:19:49.705Z,0.50
2022-07-25T06:20:53.679Z,0.50
2022-07-25T06:21:57.702Z,0.00
2022-07-25T06:23:01.906Z,0.50
2022-07-25T06:24:06.170Z,0.50
2022-07-25T06:25:10.213Z,0.50
2022-07-25T06:26:14.216Z,0.00
2022-07-25T06:27:20.673Z,0.00
2022-07-25T06:28:23.448Z,0.50
2022-07-25T06:29:27.549Z,0.00
2022-07-25T06:30:31.553Z,0.00
2022-07-25T06:31:35.597Z,0.00
2022-07-25T06:32:40.781Z,0.00
2022-07-25T06:33:44.884Z,0.25
2022-07-25T06:34:49.088Z,0.00
2022-07-25T06:35:53.112Z,0.00
2022-07-25T06:36:57.445Z,0.00
2022-07-25T06:38:01.502Z,0.00
2022-07-25T06:39:05.504Z,0.00
2022-07-25T06:40:09.816Z,0.00
2022-07-25T06:41:14.029Z,0.75
2022-07-25T06:42:18.203Z,0.25
2022-07-25T06:43:22.431Z,0.50
2022-07-25T06:44:26.224Z,0.00
2022-07-25T06:45:30.330Z,0.00
2022-07-25T06:46:34.388Z,0.25
2022-07-25T06:47:38.352Z,0.00
2022-07-25T06:48:42.559Z,0.50
2022-07-25T06:49:46.746Z,0.25
2022-07-25T06:50:51.049Z,0.00
2022-07-25T06:51:55.358Z,0.00
2022-07-25T06:52:59.468Z,0.25
2022-07-25T06:54:03.924Z,1.00
2022-07-25T06:55:08.388Z,0.75
2022-07-25T06:56:17.182Z,0.25
2022-07-25T06:57:17.416Z,1.00
2022-07-25T06:58:22.769Z,0.50
2022-07-25T06:59:26.456Z,1.00
2022-07-25T07:00:30.468Z,0.50
2022-07-25T07:01:34.395Z,1.00
2022-07-25T07:02:38.342Z,1.00
2022-07-25T07:03:42.376Z,0.75
2022-07-25T07:04:46.349Z,1.00
2022-07-25T07:05:50.342Z,1.00
2022-07-25T07:06:54.146Z,0.25
2022-07-25T07:07:58.516Z,1.00
2022-07-25T07:09:02.548Z,1.25
2022-07-25T07:10:06.376Z,1.25
2022-07-25T07:11:10.346Z,1.25
2022-07-25T07:12:14.459Z,1.00
2022-07-25T07:13:23.617Z,0.50
2022-07-25T07:14:23.484Z,0.50
2022-07-25T07:15:27.385Z,1.00
2022-07-25T07:16:31.332Z,0.75
2022-07-25T07:17:35.381Z,0.75
2022-07-25T07:18:39.256Z,0.00
2022-07-25T07:19:43.480Z,0.25
2022-07-25T07:20:47.712Z,0.00
2022-07-25T07:21:51.701Z,0.75
2022-07-25T07:22:55.793Z,0.50
2022-07-25T07:24:01.122Z,1.00
2022-07-25T07:25:05.327Z,1.50
2022-07-25T07:26:10.649Z,0.75
2022-07-25T07:27:14.871Z,0.50
2022-07-25T07:28:18.831Z,1.50
2022-07-25T07:29:22.979Z,1.75
2022-07-25T07:30:43.030Z,1.00
2022-07-25T07:31:32.180Z,1.25
2022-07-25T07:32:36.107Z,0.75
2022-07-25T07:33:40.003Z,1.00
2022-07-25T07:34:44.103Z,1.25
2022-07-25T07:35:48.304Z,1.00
2022-07-25T07:36:52.303Z,1.25
2022-07-25T07:37:56.326Z,1.50
2022-07-25T07:39:00.518Z,2.00
2022-07-25T07:40:04.504Z,1.50
2022-07-25T07:41:08.622Z,1.75
2022-07-25T07:42:12.831Z,1.50
2022-07-25T07:43:16.930Z,0.50
2022-07-25T07:44:20.944Z,0.75
2022-07-25T07:45:24.832Z,0.25
2022-07-25T07:46:28.818Z,1.00
2022-07-25T07:47:32.839Z,2.25
2022-07-25T07:48:36.891Z,2.00
2022-07-25T07:49:40.707Z,1.00
2022-07-25T07:50:44.527Z,0.50
2022-07-25T07:51:48.848Z,0.50
2022-07-25T07:52:52.851Z,0.25
2022-07-25T07:53:56.746Z,1.00
2022-07-25T07:55:00.747Z,1.50
2022-07-25T07:56:04.757Z,1.50
2022-07-25T07:57:08.648Z,1.50
2022-07-25T07:58:12.542Z,1.00
2022-07-25T07:59:16.454Z,2.00
2022-07-25T08:00:20.438Z,2.00
2022-07-25T08:01:24.588Z,0.50
2022-07-25T08:02:28.501Z,1.00
2022-07-25T08:03:32.538Z,0.75
2022-07-25T08:04:36.468Z,1.00
2022-07-25T08:05:40.241Z,1.50
2022-07-25T08:06:44.447Z,2.00
2022-07-25T08:07:48.264Z,1.50
2022-07-25T08:08:52.544Z,1.50
2022-07-25T08:09:56.738Z,1.50
2022-07-25T08:11:00.954Z,1.50
2022-07-25T08:12:04.993Z,2.00
2022-07-25T08:13:09.161Z,2.00
2022-07-25T08:14:13.238Z,2.00
2022-07-25T08:15:17.282Z,2.50
2022-07-25T08:16:21.365Z,2.00
2022-07-25T08:17:28.532Z,1.50
2022-07-25T08:18:30.503Z,1.75
2022-07-25T08:19:34.401Z,1.50
2022-07-25T08:20:38.687Z,2.00
2022-07-25T08:21:43.447Z,2.00
2022-07-25T08:22:49.229Z,1.75
2022-07-25T08:23:53.838Z,2.00
2022-07-25T08:24:57.784Z,2.00
2022-07-25T08:26:01.843Z,3.00
2022-07-25T08:27:06.093Z,2.50
2022-07-25T08:28:09.988Z,2.50
2022-07-25T08:29:25.016Z,1.50
2022-07-25T08:30:19.048Z,1.50
2022-07-25T08:31:23.103Z,2.50
2022-07-25T08:32:26.913Z,2.50
2022-07-25T08:33:31.020Z,2.50
2022-07-25T08:34:34.774Z,3.00
2022-07-25T08:35:38.719Z,2.50
2022-07-25T08:36:42.574Z,1.75
2022-07-25T08:37:46.392Z,2.75
2022-07-25T08:38:50.178Z,3.00
2022-07-25T08:39:54.207Z,3.00
2022-07-25T08:40:58.325Z,3.00
2022-07-25T08:42:02.338Z,3.00
2022-07-25T08:43:06.216Z,2.50
2022-07-25T08:44:10.209Z,3.00
2022-07-25T08:45:14.230Z,3.00
2022-07-25T08:46:18.264Z,3.25
2022-07-25T08:47:22.221Z,3.00
2022-07-25T08:48:26.232Z,4.00
2022-07-25T08:49:30.726Z,3.50
2022-07-25T08:50:34.828Z,3.00
2022-07-25T08:51:38.644Z,4.25
2022-07-25T08:52:43.959Z,3.50
2022-07-25T08:53:49.113Z,3.50
2022-07-25T08:54:53.091Z,3.00
2022-07-25T08:55:57.293Z,4.00
2022-07-25T08:57:01.300Z,4.00
2022-07-25T08:58:05.292Z,3.50
2022-07-25T08:59:09.412Z,4.00
2022-07-25T09:00:13.367Z,3.75
2022-07-25T09:01:17.452Z,4.50
2022-07-25T09:02:21.631Z,4.00
2022-07-25T09:03:25.574Z,4.00
2022-07-25T09:04:29.401Z,4.75
2022-07-25T09:05:33.219Z,3.75
2022-07-25T09:06:38.256Z,3.50
2022-07-25T09:07:42.030Z,5.00
2022-07-25T09:08:46.125Z,6.00
2022-07-25T09:09:50.125Z,4.50
2022-07-25T09:10:53.947Z,5.00
2022-07-25T09:11:58.192Z,5.00
2022-07-25T09:13:02.128Z,4.00
2022-07-25T09:14:07.120Z,3.50
2022-07-25T09:15:11.153Z,3.50
2022-07-25T09:16:16.189Z,4.00
2022-07-25T09:17:22.405Z,3.25
2022-07-25T09:18:25.160Z,3.00
2022-07-25T09:19:29.007Z,4.00
2022-07-25T09:20:33.106Z,2.50
2022-07-25T09:21:36.985Z,3.00
2022-07-25T09:22:41.104Z,3.50
2022-07-25T09:23:46.205Z,4.50
2022-07-25T09:24:50.129Z,4.50
2022-07-25T09:25:54.304Z,3.75
2022-07-25T09:26:58.162Z,3.00
2022-07-25T09:28:02.346Z,3.00
2022-07-25T09:29:06.761Z,2.50
2022-07-25T09:30:10.956Z,3.00
2022-07-25T09:31:15.250Z,3.50
2022-07-25T09:32:19.477Z,3.50
2022-07-25T09:33:23.543Z,3.00
2022-07-25T09:34:27.245Z,3.25
2022-07-25T09:35:31.676Z,3.25
2022-07-25T09:36:35.885Z,2.50
2022-07-25T09:37:39.788Z,3.00
2022-07-25T09:38:43.886Z,3.00
2022-07-25T09:39:48.402Z,3.50
2022-07-25T09:40:52.500Z,3.00
2022-07-25T09:41:56.710Z,3.75
2022-07-25T09:43:00.915Z,4.00
2022-07-25T09:44:05.384Z,3.00
2022-07-25T09:45:09.648Z,3.25
2022-07-25T09:46:13.719Z,3.50
2022-07-25T09:47:17.839Z,3.50
2022-07-25T09:48:22.043Z,3.00
2022-07-25T09:49:26.511Z,4.00
2022-07-25T09:50:30.252Z,3.50
2022-07-25T09:51:34.179Z,4.00
2022-07-25T09:52:37.960Z,4.00
2022-07-25T09:53:41.760Z,2.75
2022-07-25T09:54:45.956Z,3.50
2022-07-25T09:55:49.847Z,3.50
2022-07-25T09:56:53.675Z,3.00
2022-07-25T09:57:57.429Z,3.00
2022-07-25T09:59:01.443Z,2.75
2022-07-25T10:00:05.451Z,3.00
2022-07-25T10:01:09.496Z,2.50
2022-07-25T10:02:13.468Z,3.50
2022-07-25T10:03:17.346Z,3.00
2022-07-25T10:04:20.996Z,3.00
2022-07-25T10:05:24.936Z,2.50
2022-07-25T10:06:28.939Z,2.50
2022-07-25T10:07:32.938Z,3.75
2022-07-25T10:08:36.959Z,3.50
2022-07-25T10:09:40.940Z,3.50
2022-07-25T10:10:44.947Z,2.50
2022-07-25T10:11:48.844Z,3.00
2022-07-25T10:12:52.737Z,3.50
2022-07-25T10:13:56.745Z,3.50
2022-07-25T10:15:00.617Z,2.50
2022-07-25T10:16:04.541Z,3.00
2022-07-25T10:17:08.601Z,3.50
2022-07-25T10:18:12.540Z,3.00
2022-07-25T10:19:16.539Z,3.00
2022-07-25T10:20:20.540Z,3.00
2022-07-25T10:21:27.227Z,4.00
2022-07-25T10:22:46.719Z,4.00
2022-07-25T10:23:34.690Z,3.00
2022-07-25T10:24:38.693Z,2.75
2022-07-25T10:25:47.109Z,3.50
2022-07-25T10:26:50.998Z,3.50
2022-07-25T10:27:54.998Z,3.50
2022-07-25T10:28:59.216Z,2.50
2022-07-25T10:30:03.408Z,4.00
2022-07-25T10:31:07.544Z,2.50
2022-07-25T10:32:11.781Z,2.50
2022-07-25T10:33:15.821Z,3.00
2022-07-25T10:34:19.781Z,2.50
2022-07-25T10:35:23.826Z,3.00
2022-07-25T10:36:27.679Z,3.25
2022-07-25T10:37:31.724Z,2.50
2022-07-25T10:38:35.734Z,3.50
2022-07-25T10:39:39.594Z,3.50
2022-07-25T10:40:43.434Z,4.00
2022-07-25T10:41:47.329Z,3.00
2022-07-25T10:42:51.318Z,3.00
2022-07-25T10:43:55.419Z,4.50
2022-07-25T10:44:59.324Z,3.75
2022-07-25T10:46:03.372Z,3.50
2022-07-25T10:47:07.528Z,3.00
2022-07-25T10:48:11.495Z,2.50
2022-07-25T10:49:15.489Z,3.25
2022-07-25T10:50:39.976Z,2.50
2022-07-25T10:51:24.557Z,3.75
2022-07-25T10:52:28.354Z,2.75
2022-07-25T10:53:32.564Z,3.50
2022-07-25T10:54:36.778Z,3.50
2022-07-25T10:55:40.575Z,4.00
2022-07-25T10:56:44.357Z,3.75
2022-07-25T10:58:15.233Z,3.50
2022-07-25T10:58:53.284Z,4.00
2022-07-25T10:59:57.190Z,3.50
2022-07-25T11:01:01.138Z,4.00
2022-07-25T11:02:04.971Z,4.00
2022-07-25T11:03:08.785Z,2.50
2022-07-25T11:04:12.939Z,3.00
2022-07-25T11:05:17.193Z,3.00
2022-07-25T11:06:21.181Z,3.50
2022-07-25T11:07:25.389Z,4.00
2022-07-25T11:08:29.392Z,4.00
2022-07-25T11:09:33.193Z,3.25
2022-07-25T11:10:37.097Z,3.00
2022-07-25T11:11:40.887Z,2.75
2022-07-25T11:12:45.911Z,3.25
2022-07-25T11:13:49.915Z,3.50
2022-07-25T11:14:54.125Z,4.50
2022-07-25T11:15:58.218Z,4.00
2022-07-25T11:17:02.605Z,4.50
2022-07-25T11:18:07.552Z,4.50
2022-07-25T11:19:11.675Z,4.50
2022-07-25T11:20:15.766Z,5.00
2022-07-25T11:21:19.842Z,4.50
2022-07-25T11:22:23.657Z,4.25
2022-07-25T11:23:27.866Z,3.50
2022-07-25T11:24:31.659Z,3.75
2022-07-25T11:25:35.476Z,4.00
2022-07-25T11:26:39.455Z,3.50
2022-07-25T11:27:43.145Z,4.50
2022-07-25T11:28:47.150Z,5.00
2022-07-25T11:29:51.110Z,4.25
2022-07-25T11:30:55.063Z,4.00
2022-07-25T11:31:59.226Z,3.50
2022-07-25T11:33:03.276Z,4.25
2022-07-25T11:34:07.357Z,4.25
2022-07-25T11:35:11.568Z,4.75
2022-07-25T11:36:15.518Z,4.25
2022-07-25T11:37:19.364Z,4.75
2022-07-25T11:38:23.288Z,5.00
2022-07-25T11:39:27.364Z,3.50
2022-07-25T11:40:31.111Z,3.75
2022-07-25T11:41:34.758Z,4.50
2022-07-25T11:42:38.655Z,3.75
2022-07-25T11:43:42.689Z,4.00
2022-07-25T11:44:48.002Z,3.25
2022-07-25T11:45:51.844Z,3.50
2022-07-25T11:46:55.751Z,3.75
2022-07-25T11:47:59.683Z,4.00
2022-07-25T11:49:03.862Z,4.50
2022-07-25T11:50:08.093Z,4.00
2022-07-25T11:51:16.300Z,5.00
2022-07-25T11:52:17.086Z,3.50
2022-07-25T11:53:20.924Z,4.00
2022-07-25T11:54:24.816Z,3.00
2022-07-25T11:55:28.776Z,4.00
2022-07-25T11:56:42.413Z,4.50
2022-07-25T11:57:37.326Z,3.50
2022-07-25T11:58:41.240Z,3.50
2022-07-25T11:59:45.428Z,4.25
2022-07-25T12:00:49.551Z,4.75
2022-07-25T12:01:53.667Z,4.50
2022-07-25T12:02:57.886Z,3.50
2022-07-25T12:04:01.950Z,2.25
2022-07-25T12:05:06.037Z,4.00
2022-07-25T12:06:10.156Z,4.00
2022-07-25T12:07:14.155Z,4.00
2022-07-25T12:08:18.260Z,5.00
2022-07-25T12:09:22.157Z,4.50
2022-07-25T12:10:25.858Z,4.00
2022-07-25T12:11:29.961Z,4.50
2022-07-25T12:12:33.648Z,4.50
2022-07-25T12:13:37.549Z,3.75
2022-07-25T12:14:41.549Z,5.00
2022-07-25T12:15:45.448Z,4.25
2022-07-25T12:16:49.491Z,4.00
2022-07-25T12:17:53.380Z,2.75
2022-07-25T12:18:57.156Z,4.00
2022-07-25T12:20:01.009Z,3.50
2022-07-25T12:21:04.943Z,3.50
2022-07-25T12:22:09.044Z,4.00
2022-07-25T12:23:13.045Z,5.00
2022-07-25T12:24:17.064Z,5.00
2022-07-25T12:25:20.828Z,5.00
2022-07-25T12:26:24.645Z,4.50
2022-07-25T12:27:28.548Z,4.50
2022-07-25T12:28:32.329Z,4.25
2022-07-25T12:29:36.253Z,4.50
2022-07-25T12:30:40.092Z,4.50
2022-07-25T12:31:43.923Z,5.00
2022-07-25T12:32:47.865Z,5.50
2022-07-25T12:33:51.633Z,5.50
2022-07-25T12:34:55.504Z,4.00
2022-07-25T12:36:08.053Z,4.00
2022-07-25T12:37:07.926Z,5.25
2022-07-25T12:38:11.935Z,5.50
2022-07-25T12:39:16.022Z,5.25
2022-07-25T12:40:20.035Z,4.50
2022-07-25T12:41:24.244Z,5.25
2022-07-25T12:42:28.211Z,4.00
2022-07-25T12:43:32.237Z,4.50
2022-07-25T12:44:36.126Z,5.00
2022-07-25T12:45:40.019Z,4.75
2022-07-25T12:46:48.954Z,5.50
2022-07-25T12:47:49.136Z,4.50
2022-07-25T12:48:53.323Z,5.00
2022-07-25T12:49:57.470Z,5.00
2022-07-25T12:51:01.481Z,5.00
2022-07-25T12:52:05.793Z,5.00
2022-07-25T12:53:09.570Z,5.00
2022-07-25T12:54:15.354Z,4.75
2022-07-25T12:55:18.810Z,5.50
2022-07-25T12:56:22.808Z,5.00
2022-07-25T12:57:26.791Z,4.50
2022-07-25T12:58:30.609Z,4.50
2022-07-25T12:59:34.607Z,5.00
2022-07-25T13:00:38.519Z,4.75
2022-07-25T13:01:42.478Z,4.50
2022-07-25T13:02:46.554Z,5.00
2022-07-25T13:03:50.719Z,5.00
2022-07-25T13:04:54.615Z,5.00
2022-07-25T13:05:58.431Z,5.00
2022-07-25T13:07:02.109Z,4.50
2022-07-25T13:08:06.011Z,5.00
2022-07-25T13:09:10.186Z,4.25
2022-07-25T13:10:14.303Z,4.50
2022-07-25T13:11:18.213Z,4.00
2022-07-25T13:12:22.107Z,5.50
2022-07-25T13:13:25.918Z,5.50
2022-07-25T13:14:29.905Z,5.50
2022-07-25T13:15:33.927Z,5.50
2022-07-25T13:16:38.008Z,5.00
2022-07-25T13:17:42.063Z,5.00
2022-07-25T13:18:45.907Z,4.75
2022-07-25T13:19:49.819Z,5.00
2022-07-25T13:20:53.609Z,4.75
2022-07-25T13:21:57.479Z,5.50
2022-07-25T13:23:01.415Z,5.75
2022-07-25T13:24:05.402Z,6.00
2022-07-25T13:25:09.403Z,5.00
2022-07-25T13:26:13.212Z,5.75
2022-07-25T13:27:17.097Z,6.00
2022-07-25T13:28:21.088Z,4.50
2022-07-25T13:29:24.932Z,4.50
2022-07-25T13:30:28.795Z,4.00
2022-07-25T13:31:36.408Z,5.50
2022-07-25T13:32:40.289Z,5.00
2022-07-25T13:33:44.310Z,5.75
2022-07-25T13:34:48.482Z,5.50
2022-07-25T13:35:55.249Z,5.50
2022-07-25T13:36:59.259Z,5.75
2022-07-25T13:38:03.353Z,5.50
2022-07-25T13:39:07.569Z,6.00
2022-07-25T13:40:11.665Z,6.00
2022-07-25T13:41:15.568Z,5.00
2022-07-25T13:42:19.342Z,4.75
2022-07-25T13:43:23.145Z,4.75
2022-07-25T13:44:26.962Z,4.75
2022-07-25T13:45:31.002Z,4.25
2022-07-25T13:46:34.759Z,4.50
2022-07-25T13:47:38.629Z,3.50
2022-07-25T13:48:42.598Z,4.00
2022-07-25T13:49:46.339Z,4.00
2022-07-25T13:50:50.345Z,4.00
2022-07-25T13:51:54.138Z,3.00
2022-07-25T13:52:58.000Z,3.00
2022-07-25T13:54:01.748Z,4.50
2022-07-25T13:55:05.627Z,4.00
2022-07-25T13:56:09.587Z,4.50
2022-07-25T13:57:13.442Z,4.00
2022-07-25T13:58:17.288Z,4.00
2022-07-25T13:59:21.667Z,4.50
2022-07-25T14:00:25.809Z,4.50
2022-07-25T14:01:29.749Z,5.00
2022-07-25T14:02:33.569Z,5.00
2022-07-25T14:03:37.312Z,4.50
2022-07-25T14:04:41.143Z,5.00
2022-07-25T14:05:45.037Z,5.50
2022-07-25T14:06:49.035Z,4.75
2022-07-25T14:07:53.136Z,5.00
2022-07-25T14:08:57.360Z,5.00
2022-07-25T14:10:01.713Z,5.50
2022-07-25T14:11:05.851Z,5.00
2022-07-25T14:12:09.959Z,3.50
2022-07-25T14:13:13.916Z,5.00
2022-07-25T14:14:17.865Z,5.50